Time;durP1;ratioP1;P1;durP2;ratioP2;P2;SDS_P1;SDS_P2;PMS_P1;PMS_P2;Temp;Humidity;BMP_temperature;BMP_pressure;BME280_temperature;BME280_humidity;BME280_pressure;Samples;Min_cycle;Max_cycle;Signal;HPM_P1;HPM_P2
2022/05/04 00:00:48;;;;;;;0.10;0.10;;;;;;;21.18;38.13;101415.66;5119566;28;21192;-29
2022/05/04 00:03:14;;;;;;;0.10;0.10;;;;;;;21.18;38.17;101413.72;5116418;28;20047;-30
2022/05/04 00:05:39;;;;;;;0.10;0.10;;;;;;;21.18;38.05;101416.50;5119604;28;20043;-30
2022/05/04 00:08:05;;;;;;;0.20;0.20;;;;;;;21.18;37.96;101412.91;5118272;28;20125;-32
2022/05/04 00:10:31;;;;;;;0.10;0.10;;;;;;;21.18;38.24;101419.25;5122622;28;20062;-31
2022/05/04 00:12:58;;;;;;;0.10;0.10;;;;;;;21.18;37.99;101423.97;5119795;28;20063;-33
2022/05/04 00:15:24;;;;;;;0.10;0.10;;;;;;;21.18;38.12;101415.66;5115830;28;20169;-31
2022/05/04 00:17:50;;;;;;;0.10;0.10;;;;;;;21.17;37.97;101416.78;5120490;28;20082;-31
2022/05/04 00:20:16;;;;;;;0.20;0.20;;;;;;;21.17;38.04;101417.59;5115124;28;20047;-30
2022/05/04 00:22:43;;;;;;;0.10;0.10;;;;;;;21.17;37.97;101412.06;5117524;28;20070;-30
2022/05/04 00:25:10;;;;;;;0.10;0.10;;;;;;;21.18;38.11;101408.19;5120062;28;20091;-32
2022/05/04 00:27:36;;;;;;;0.10;0.10;;;;;;;21.17;38.20;101408.47;5122861;28;20094;-30
2022/05/04 00:30:04;;;;;;;0.10;0.10;;;;;;;21.16;38.11;101404.88;5119524;27;20188;-30
2022/05/04 00:32:29;;;;;;;0.10;0.10;;;;;;;21.16;37.98;101413.19;5116694;28;20521;-30
2022/05/04 00:34:55;;;;;;;0.17;0.17;;;;;;;21.16;38.04;101402.09;5119035;28;20533;-31
2022/05/04 00:37:21;;;;;;;0.10;0.10;;;;;;;21.16;38.05;101401.28;5120016;28;20138;-32
2022/05/04 00:39:47;;;;;;;0.10;0.10;;;;;;;21.16;38.16;101404.88;5115005;28;20043;-29
2022/05/04 00:42:15;;;;;;;0.20;0.20;;;;;;;21.18;37.98;101412.91;5118005;28;20128;-31
2022/05/04 00:44:42;;;;;;;0.10;0.10;;;;;;;21.17;38.04;101412.06;5097568;28;20083;-32
2022/05/04 00:47:08;;;;;;;0.10;0.10;;;;;;;21.16;37.98;101406.81;5099103;28;20091;-30
2022/05/04 00:49:35;;;;;;;0.10;0.10;;;;;;;21.16;38.21;101412.38;5115657;28;20118;-29
2022/05/04 00:52:02;;;;;;;0.17;0.17;;;;;;;21.16;37.98;101409.59;5118597;28;20343;-31
2022/05/04 00:54:29;;;;;;;0.10;0.10;;;;;;;21.16;38.26;101415.97;5116935;28;20074;-30
2022/05/04 00:56:55;;;;;;;0.10;0.10;;;;;;;21.16;37.99;101417.91;5119345;28;20079;-34
2022/05/04 00:59:21;;;;;;;0.10;0.10;;;;;;;21.16;38.23;101421.50;5117346;28;20104;-27
2022/05/04 01:01:47;;;;;;;0.20;0.20;;;;;;;21.15;38.05;101419.81;5105362;28;20395;-29
2022/05/04 01:04:13;;;;;;;0.10;0.10;;;;;;;21.15;38.18;101411.50;5119901;28;20617;-28
2022/05/04 01:06:39;;;;;;;0.20;0.20;;;;;;;21.15;38.05;101419.00;5121069;28;20401;-28
2022/05/04 01:09:05;;;;;;;0.17;0.17;;;;;;;21.16;37.94;101420.66;5116088;28;20456;-31
2022/05/04 01:11:30;;;;;;;0.10;0.10;;;;;;;21.15;37.99;101411.50;5119534;28;20173;-31
2022/05/04 01:13:59;;;;;;;0.10;0.10;;;;;;;21.14;38.19;101404.31;5116443;28;20051;-31
2022/05/04 01:16:26;;;;;;;0.10;0.10;;;;;;;21.15;38.22;101407.91;5101235;28;20081;-30
2022/05/04 01:18:51;;;;;;;0.10;0.10;;;;;;;21.14;38.22;101407.09;5117585;28;20405;-30
2022/05/04 01:21:17;;;;;;;0.10;0.10;;;;;;;21.14;37.82;101412.63;5117188;28;20036;-32
2022/05/04 01:23:43;;;;;;;0.20;0.20;;;;;;;21.14;38.11;101409.03;5118667;28;20445;-31
2022/05/04 01:26:08;;;;;;;0.10;0.10;;;;;;;21.14;38.34;101412.63;5120614;28;20058;-30
2022/05/04 01:28:34;;;;;;;0.10;0.10;;;;;;;21.14;38.25;101409.84;5119266;27;20039;-33
2022/05/04 01:31:00;;;;;;;0.10;0.10;;;;;;;21.15;38.13;101413.44;5117572;28;20052;-32
2022/05/04 01:33:25;;;;;;;0.10;0.10;;;;;;;21.15;38.03;101413.44;5116495;28;20522;-30
2022/05/04 01:35:51;;;;;;;0.10;0.10;;;;;;;21.14;38.26;101415.41;5116390;28;20043;-31
2022/05/04 01:38:17;;;;;;;0.10;0.10;;;;;;;21.13;38.32;101416.50;5116385;28;20054;-31
2022/05/04 01:40:42;;;;;;;0.10;0.10;;;;;;;21.14;38.24;101411.81;5113815;28;20051;-32
2022/05/04 01:43:08;;;;;;;0.17;0.17;;;;;;;21.13;38.26;101405.44;5118542;28;20055;-31
2022/05/04 01:45:34;;;;;;;0.10;0.10;;;;;;;21.12;38.24;101406.56;5117897;28;20478;-28
2022/05/04 01:47:59;;;;;;;0.10;0.10;;;;;;;21.13;38.10;101410.97;5116303;28;20047;-33
2022/05/04 01:50:25;;;;;;;0.10;0.10;;;;;;;21.14;38.12;101414.56;5111709;27;20046;-31
2022/05/04 01:52:51;;;;;;;0.10;0.10;;;;;;;21.14;38.19;101411.81;5123212;28;20047;-30
2022/05/04 01:55:17;;;;;;;0.10;0.10;;;;;;;21.13;38.34;101421.22;5116628;28;20049;-30
2022/05/04 01:57:43;;;;;;;0.10;0.10;;;;;;;21.13;38.11;101412.91;5117501;28;20050;-30
2022/05/04 02:00:09;;;;;;;0.10;0.10;;;;;;;21.13;38.28;101416.50;5115392;28;20239;-32
2022/05/04 02:02:35;;;;;;;0.10;0.10;;;;;;;21.12;38.10;101405.72;5118654;28;20184;-32
2022/05/04 02:05:01;;;;;;;0.10;0.10;;;;;;;21.13;38.13;101410.16;5125197;28;20043;-31
2022/05/04 02:07:27;;;;;;;0.10;0.10;;;;;;;21.12;38.05;101406.56;5121044;28;20164;-33
2022/05/04 02:09:54;;;;;;;0.10;0.10;;;;;;;21.13;38.07;101410.16;5117855;28;20141;-30
2022/05/04 02:12:20;;;;;;;0.10;0.10;;;;;;;21.11;38.38;101418.72;5121963;28;20050;-30
2022/05/04 02:14:46;;;;;;;0.20;0.20;;;;;;;21.11;38.10;101412.34;5123631;28;20534;-30
2022/05/04 02:17:12;;;;;;;0.10;0.10;;;;;;;21.12;38.41;101417.63;5117199;28;20206;-31
2022/05/04 02:19:38;;;;;;;0.10;0.10;;;;;;;21.12;38.20;101414.88;5118158;28;20116;-31
2022/05/04 02:22:04;;;;;;;0.10;0.10;;;;;;;21.12;38.34;101423.16;5116844;28;20043;-30
2022/05/04 02:24:29;;;;;;;0.10;0.10;;;;;;;21.12;38.13;101414.03;5117078;28;20047;-30
2022/05/04 02:26:55;;;;;;;0.10;0.10;;;;;;;21.12;38.33;101405.72;5121334;28;20482;-33
2022/05/04 02:29:20;;;;;;;0.20;0.20;;;;;;;21.12;38.10;101409.31;5118677;27;20031;-30
2022/05/04 02:31:46;;;;;;;0.10;0.10;;;;;;;21.12;38.19;101409.31;5121994;28;20051;-31
2022/05/04 02:34:12;;;;;;;0.20;0.20;;;;;;;21.11;38.14;101407.63;5122963;28;20128;-30
2022/05/04 02:39:23;;;;;;;0.10;0.10;;;;;;;21.11;38.17;101412.34;5103277;28;20105;-32
2022/05/04 02:41:51;;;;;;;0.10;0.10;;;;;;;21.12;38.16;101423.16;5120007;28;20466;-31
2022/05/04 02:44:18;;;;;;;0.15;0.15;;;;;;;21.11;38.19;101418.72;5117302;28;20546;-30
2022/05/04 02:46:43;;;;;;;0.10;0.10;;;;;;;21.10;38.44;101414.31;5118809;28;20134;-34
2022/05/04 02:49:09;;;;;;;0.10;0.10;;;;;;;21.10;38.35;101411.53;5117428;28;20035;-32
2022/05/04 02:51:35;;;;;;;0.10;0.10;;;;;;;21.11;38.17;101413.19;5120564;28;20055;-31
2022/05/04 02:54:00;;;;;;;0.10;0.10;;;;;;;21.11;38.24;101406.81;5123795;28;20043;-30
2022/05/04 02:56:26;;;;;;;0.10;0.10;;;;;;;21.12;38.16;101397.41;5120034;28;20055;-34
2022/05/04 02:58:53;;;;;;;0.10;0.10;;;;;;;21.12;38.21;101400.19;5119651;27;20764;-31
2022/05/04 03:04:06;;;;;;;0.20;0.20;;;;;;;21.11;38.43;101401.28;5107215;28;20289;-31
2022/05/04 03:06:33;;;;;;;0.17;0.17;;;;;;;21.11;38.26;101401.28;5121795;28;20332;-29
2022/05/04 03:09:00;;;;;;;0.17;0.17;;;;;;;21.10;38.12;101396.84;5117558;28;20078;-30
2022/05/04 03:11:56;;;;;;;0.10;0.10;;;;;;;21.10;38.04;101396.84;5115877;28;20550;-28
2022/05/04 03:14:11;;;;;;;0.10;0.10;;;;;;;21.11;38.22;101398.50;5103317;28;20070;-30
2022/05/04 03:16:38;;;;;;;0.10;0.10;;;;;;;21.10;38.23;101407.94;5115803;28;20081;-30
2022/05/04 03:19:04;;;;;;;0.10;0.10;;;;;;;21.09;38.34;101396.03;5115021;28;20127;-28
2022/05/04 03:21:30;;;;;;;0.10;0.10;;;;;;;21.10;38.13;101403.22;5119560;28;20536;-30
2022/05/04 03:23:56;;;;;;;0.10;0.10;;;;;;;21.10;38.51;101407.94;5121881;28;20051;-28
2022/05/04 03:26:21;;;;;;;0.10;0.10;;;;;;;21.09;38.20;101404.34;5117226;28;20043;-29
2022/05/04 03:28:47;;;;;;;0.10;0.10;;;;;;;21.09;38.26;101403.50;5114818;28;20470;-33
2022/05/04 03:31:14;;;;;;;0.10;0.10;;;;;;;21.09;38.35;101414.59;5121579;28;20046;-28
2022/05/04 03:33:39;;;;;;;0.10;0.10;;;;;;;21.09;38.07;101407.09;5119566;28;20055;-29
2022/05/04 03:36:06;;;;;;;0.10;0.10;;;;;;;21.09;38.11;101409.88;5116503;28;20039;-32
2022/05/04 03:38:32;;;;;;;0.10;0.10;;;;;;;21.09;38.10;101409.06;5116897;28;20082;-29
2022/05/04 03:40:58;;;;;;;0.20;0.20;;;;;;;21.09;38.09;101409.88;5120923;28;20075;-28
2022/05/04 03:43:24;;;;;;;0.10;0.10;;;;;;;21.09;38.09;101403.50;5117430;28;20397;-30
2022/05/04 03:45:49;;;;;;;0.10;0.10;;;;;;;21.08;38.39;101405.47;5116980;28;20043;-31
2022/05/04 03:48:15;;;;;;;0.10;0.10;;;;;;;21.09;38.32;101397.97;5120574;28;20410;-30
2022/05/04 03:50:41;;;;;;;0.20;0.20;;;;;;;21.07;38.05;101401.03;5118855;28;20048;-31
2022/05/04 03:53:07;;;;;;;0.10;0.10;;;;;;;21.07;38.13;101398.28;5116351;28;20044;-34
2022/05/04 03:55:33;;;;;;;0.20;0.20;;;;;;;21.09;38.30;101400.75;5103585;28;20544;-31
2022/05/04 03:57:59;;;;;;;0.10;0.10;;;;;;;21.07;38.48;101395.50;5120189;27;20430;-30
2022/05/04 04:00:25;;;;;;;0.20;0.20;;;;;;;21.08;38.12;101399.09;5121101;27;20051;-32
2022/05/04 04:02:50;;;;;;;0.10;0.10;;;;;;;21.08;38.10;101402.69;5117848;28;20236;-28
2022/05/04 04:05:16;;;;;;;0.10;0.10;;;;;;;21.08;38.32;101401.88;5115367;28;20397;-29
2022/05/04 04:07:42;;;;;;;0.10;0.10;;;;;;;21.08;38.03;101397.16;5116916;28;20047;-30
2022/05/04 04:10:08;;;;;;;0.10;0.10;;;;;;;21.09;38.29;101395.22;5117672;28;20050;-29
2022/05/04 04:12:34;;;;;;;0.10;0.10;;;;;;;21.08;38.22;101399.91;5119351;28;20051;-31
2022/05/04 04:15:00;;;;;;;0.20;0.20;;;;;;;21.08;38.29;101397.16;5119415;27;20107;-30
2022/05/04 04:17:25;;;;;;;0.10;0.10;;;;;;;21.07;38.63;101398.28;5118783;28;20043;-31
2022/05/04 04:21:50;;;;;;;0.15;0.15;;;;;;;21.09;38.32;101397.97;5117140;28;20046;-33
2022/05/04 04:22:36;;;;;;;0.10;0.10;;;;;;;21.08;37.90;101405.47;5102720;28;20083;-31
2022/05/04 04:25:03;;;;;;;0.10;0.10;;;;;;;21.08;38.15;101411.00;5119428;28;20049;-30
2022/05/04 04:27:29;;;;;;;0.10;0.10;;;;;;;21.07;38.14;101411.25;5119965;28;20453;-31
2022/05/04 04:29:54;;;;;;;0.10;0.10;;;;;;;21.07;38.36;101412.13;5117554;28;20446;-32
2022/05/04 04:32:20;;;;;;;0.20;0.20;;;;;;;21.06;38.34;101421.50;5121667;28;20126;-33
2022/05/04 04:34:46;;;;;;;0.10;0.10;;;;;;;21.07;38.42;101414.03;5116969;28;20051;-28
2022/05/04 04:37:12;;;;;;;0.10;0.10;;;;;;;21.07;38.24;101419.56;5117965;28;20616;-30
2022/05/04 04:39:37;;;;;;;0.10;0.10;;;;;;;21.07;38.14;101425.09;5116764;28;20089;-30
2022/05/04 04:42:03;;;;;;;0.17;0.17;;;;;;;21.07;38.21;101427.88;5121358;28;20043;-31
2022/05/04 04:44:33;;;;;;;0.10;0.10;;;;;;;21.07;38.33;101419.56;5098399;28;20471;-32
2022/05/04 04:46:59;;;;;;;0.10;0.10;;;;;;;21.07;38.20;101416.78;5116940;28;20050;-29
2022/05/04 04:49:25;;;;;;;0.10;0.10;;;;;;;21.06;38.15;101418.75;5113675;28;20399;-30
2022/05/04 04:51:51;;;;;;;0.10;0.10;;;;;;;21.06;38.21;101418.75;5118082;28;20225;-28
2022/05/04 04:54:17;;;;;;;0.10;0.10;;;;;;;21.05;38.17;101420.69;5118320;28;20555;-28
2022/05/04 04:56:42;;;;;;;0.10;0.10;;;;;;;21.06;38.46;101418.75;5114907;28;20051;-28
2022/05/04 04:59:08;;;;;;;0.20;0.20;;;;;;;21.05;38.17;101420.69;5117550;27;20054;-30
2022/05/04 05:01:34;;;;;;;0.10;0.10;;;;;;;21.04;38.43;101419.03;5097501;28;20044;-32
2022/05/04 05:04:00;;;;;;;0.10;0.10;;;;;;;21.05;38.41;101415.16;5120274;28;20058;-31
2022/05/04 05:06:25;;;;;;;0.10;0.10;;;;;;;21.04;38.12;101419.03;5117893;28;20386;-33
2022/05/04 05:08:51;;;;;;;0.15;0.15;;;;;;;21.05;38.11;101420.69;5118931;28;20048;-31
2022/05/04 05:11:16;;;;;;;0.10;0.10;;;;;;;21.05;38.25;101420.69;5113123;28;20103;-30
2022/05/04 05:16:28;;;;;;;0.20;0.20;;;;;;;21.04;38.31;101426.50;5089156;28;20128;-31
2022/05/04 05:18:54;;;;;;;0.20;0.20;;;;;;;21.04;38.25;101424.56;5115193;28;20043;-30
2022/05/04 05:21:19;;;;;;;0.10;0.10;;;;;;;21.04;38.12;101423.75;5119313;28;20062;-31
2022/05/04 05:23:45;;;;;;;0.10;0.10;;;;;;;21.03;38.19;101430.41;5120294;28;20040;-30
2022/05/04 05:26:11;;;;;;;0.10;0.10;;;;;;;21.03;38.21;101422.09;5116987;27;20057;-31
2022/05/04 05:28:36;;;;;;;0.10;0.10;;;;;;;21.02;38.42;101418.47;5118864;28;20054;-31
2022/05/04 05:31:03;;;;;;;0.20;0.20;;;;;;;21.03;38.40;101428.47;5117231;27;20047;-32
2022/05/04 05:33:28;;;;;;;0.20;0.20;;;;;;;21.03;38.35;101428.47;5119045;28;20047;-31
2022/05/04 05:35:54;;;;;;;0.10;0.10;;;;;;;21.03;38.27;101430.41;5120056;28;20054;-31
2022/05/04 05:38:20;;;;;;;0.10;0.10;;;;;;;21.02;38.35;101429.53;5121697;28;20067;-32
2022/05/04 05:40:47;;;;;;;0.10;0.10;;;;;;;21.01;38.35;101430.66;5114912;28;20412;-32
2022/05/04 05:43:12;;;;;;;0.10;0.10;;;;;;;21.02;38.34;101439.78;5100077;28;20154;-32
2022/05/04 05:45:38;;;;;;;0.10;0.10;;;;;;;21.02;38.15;101439.78;5118119;28;20043;-30
2022/05/04 05:48:04;;;;;;;0.10;0.10;;;;;;;21.02;38.19;101434.25;5118907;28;20153;-32
2022/05/04 05:50:30;;;;;;;0.10;0.10;;;;;;;21.02;38.33;101439.78;5097359;28;20126;-32
2022/05/04 05:52:56;;;;;;;0.20;0.20;;;;;;;21.02;38.10;101435.09;5122188;28;20233;-33
2022/05/04 05:55:22;;;;;;;0.10;0.10;;;;;;;21.01;38.13;101438.16;5119384;28;20074;-32
2022/05/04 05:57:48;;;;;;;0.13;0.13;;;;;;;21.01;38.25;101425.13;5115917;27;20042;-32
2022/05/04 06:00:15;;;;;;;0.10;0.10;;;;;;;21.01;38.36;101429.84;5112981;28;20051;-31
2022/05/04 06:02:40;;;;;;;0.10;0.10;;;;;;;21.01;38.48;101427.91;5115846;28;20148;-32
2022/05/04 06:05:06;;;;;;;0.10;0.10;;;;;;;21.01;38.01;101427.91;5115381;27;20498;-30
2022/05/04 06:07:32;;;;;;;0.10;0.10;;;;;;;21.01;38.36;101427.06;5116426;28;20039;-31
2022/05/04 06:09:58;;;;;;;0.17;0.17;;;;;;;21.01;38.10;101424.31;5115790;28;20054;-30
2022/05/04 06:12:23;;;;;;;0.10;0.10;;;;;;;21.00;38.19;101439.25;5121035;28;20046;-31
2022/05/04 06:14:50;;;;;;;0.10;0.10;;;;;;;21.00;38.15;101430.97;5113669;27;20047;-32
2022/05/04 06:17:16;;;;;;;0.20;0.20;;;;;;;20.99;38.04;101435.66;5099562;28;20200;-30
2022/05/04 06:19:41;;;;;;;0.10;0.10;;;;;;;21.01;38.00;101438.16;5119437;28;20047;-31
2022/05/04 06:22:07;;;;;;;0.10;0.10;;;;;;;20.91;37.08;101435.41;5123081;28;20370;-30
2022/05/04 06:24:33;;;;;;;0.10;0.10;;;;;;;20.98;37.55;101439.56;5121910;28;20088;-30
2022/05/04 06:26:58;;;;;;;0.10;0.10;;;;;;;21.01;37.48;101440.91;5119932;28;20035;-31
2022/05/04 06:34:06;;;;;;;0.10;0.10;;;;;;;21.00;37.82;101434.56;5119966;27;20091;-30
2022/05/04 06:34:55;;;;;;;0.10;0.10;;;;;;;21.03;37.97;101445.06;5105629;28;20577;-30
2022/05/04 06:37:21;;;;;;;0.10;0.10;;;;;;;21.03;37.77;101450.63;5118552;27;20043;-31
2022/05/04 06:39:47;;;;;;;0.10;0.10;;;;;;;21.04;37.88;101441.19;5124492;27;20043;-34
2022/05/04 06:42:12;;;;;;;0.10;0.10;;;;;;;21.04;37.72;101438.41;5119720;28;20050;-31
2022/05/04 06:44:38;;;;;;;0.10;0.10;;;;;;;21.04;37.90;101446.72;5119171;28;20047;-30
2022/05/04 06:47:04;;;;;;;0.20;0.20;;;;;;;21.07;37.80;101453.66;5120012;28;20076;-34
2022/05/04 06:49:30;;;;;;;0.10;0.10;;;;;;;21.06;37.68;101440.91;5107420;27;20124;-30
2022/05/04 06:51:55;;;;;;;0.10;0.10;;;;;;;21.08;37.85;101457.25;5114220;28;20042;-30
2022/05/04 06:54:21;;;;;;;0.20;0.20;;;;;;;21.08;37.78;101449.78;5112902;27;20048;-30
2022/05/04 06:56:50;;;;;;;0.10;0.10;;;;;;;21.09;37.89;101454.19;5101655;28;20082;-30
2022/05/04 06:59:16;;;;;;;0.10;0.10;;;;;;;21.10;37.84;101450.31;5113365;27;20055;-30
2022/05/04 07:01:44;;;;;;;0.10;0.10;;;;;;;21.11;37.77;101460.25;5106177;27;20058;-31
2022/05/04 07:04:10;;;;;;;0.10;0.10;;;;;;;21.12;37.90;101459.19;5109687;28;21156;-35
2022/05/04 07:06:35;;;;;;;0.10;0.10;;;;;;;21.12;37.78;101467.47;5102206;28;20047;-32
2022/05/04 07:09:01;;;;;;;0.10;0.10;;;;;;;21.13;37.85;101462.78;5105475;28;20051;-30
2022/05/04 07:11:26;;;;;;;0.13;0.13;;;;;;;21.14;37.83;101462.47;5108383;28;20047;-32
2022/05/04 07:13:52;;;;;;;0.20;0.20;;;;;;;21.15;37.67;101460.53;5113178;27;20043;-32
2022/05/04 07:16:18;;;;;;;0.20;0.20;;;;;;;21.16;37.61;101462.22;5104200;28;20039;-33
2022/05/04 07:18:43;;;;;;;0.10;0.10;;;;;;;21.16;37.51;101459.44;5105412;28;20059;-31
2022/05/04 07:21:09;;;;;;;0.10;0.10;;;;;;;21.16;37.64;101453.91;5109020;27;20409;-31
2022/05/04 07:23:35;;;;;;;0.15;0.15;;;;;;;20.78;36.24;101458.97;5117079;27;20278;-36
2022/05/04 07:26:00;;;;;;;0.20;0.20;;;;;;;20.41;36.67;101473.88;5113945;28;20054;-41
2022/05/04 07:28:26;;;;;;;0.10;0.10;;;;;;;20.21;37.26;101465.59;5116541;27;20039;-39
2022/05/04 07:30:52;;;;;;;0.10;0.10;;;;;;;20.34;37.12;101467.81;5116931;27;20035;-34
2022/05/04 07:33:18;;;;;;;0.10;0.10;;;;;;;20.29;37.68;101467.78;5111540;28;20596;-42
2022/05/04 07:35:43;;;;;;;0.10;0.10;;;;;;;20.40;37.30;101461.16;5115987;28;20054;-30
2022/05/04 07:38:09;;;;;;;0.10;0.10;;;;;;;20.83;36.86;101467.25;5117271;28;20051;-33
2022/05/04 07:43:20;;;;;;;0.10;0.10;;;;;;;21.17;36.84;101467.47;5100329;28;20134;-31
2022/05/04 07:45:46;;;;;;;0.15;0.15;;;;;;;21.24;36.54;101467.16;5115366;28;20116;-31
2022/05/04 07:48:12;;;;;;;0.10;0.10;;;;;;;21.29;36.84;101468.00;5116899;28;20047;-31
2022/05/04 07:50:37;;;;;;;0.20;0.20;;;;;;;21.33;36.80;101468.28;5112788;28;20118;-32
2022/05/04 07:53:03;;;;;;;0.20;0.20;;;;;;;21.35;36.67;101468.00;5114816;28;20051;-32
2022/05/04 07:55:30;;;;;;;0.10;0.10;;;;;;;21.37;36.78;101466.59;5115108;28;20130;-28
2022/05/04 07:57:56;;;;;;;0.20;0.20;;;;;;;21.40;36.68;101462.44;5111000;28;20524;-31
2022/05/04 08:05:54;;;;;;;0.10;0.10;;;;;;;21.43;37.02;101464.66;5084117;28;20559;-31
2022/05/04 08:08:20;;;;;;;0.10;0.10;;;;;;;21.44;36.87;101458.81;5108170;28;20054;-32
2022/05/04 08:10:45;;;;;;;0.20;0.20;;;;;;;21.44;36.79;101464.34;5106972;28;20191;-31
2022/05/04 08:13:11;;;;;;;0.13;0.13;;;;;;;21.46;36.83;101462.13;5108393;27;20058;-36
2022/05/04 08:15:37;;;;;;;0.10;0.10;;;;;;;21.47;36.84;101465.75;5108623;27;20055;-33
2022/05/04 08:18:03;;;;;;;0.10;0.10;;;;;;;21.47;36.67;101463.78;5107491;27;20113;-32
2022/05/04 08:20:29;;;;;;;0.10;0.10;;;;;;;21.49;36.87;101467.09;5107891;28;20111;-32
2022/05/04 08:22:57;;;;;;;0.10;0.10;;;;;;;21.50;37.16;101460.47;5104253;28;20507;-31
2022/05/04 08:25:23;;;;;;;0.10;0.10;;;;;;;21.51;36.88;101470.44;5099437;28;20055;-31
2022/05/04 08:27:49;;;;;;;0.10;0.10;;;;;;;21.51;36.87;101462.13;5101525;27;20135;-32
2022/05/04 08:30:15;;;;;;;0.10;0.10;;;;;;;21.53;36.77;101465.41;5107195;27;20671;-32
2022/05/04 08:32:44;;;;;;;0.10;0.10;;;;;;;21.53;36.71;101468.19;5107993;27;20127;-31
2022/05/04 08:35:12;;;;;;;0.10;0.10;;;;;;;21.53;36.81;101456.28;5104487;27;20074;-31
2022/05/04 08:37:38;;;;;;;0.10;0.10;;;;;;;21.55;36.81;101454.06;5108534;28;20125;-31
2022/05/04 08:40:04;;;;;;;0.10;0.10;;;;;;;21.56;36.99;101464.03;5105884;28;20445;-31
2022/05/04 08:42:30;;;;;;;0.10;0.10;;;;;;;21.57;37.02;101474.00;5108027;27;20071;-31
2022/05/04 08:44:57;;;;;;;0.10;0.10;;;;;;;21.57;36.85;101465.69;5112656;27;20050;-31
2022/05/04 08:47:22;;;;;;;0.13;0.13;;;;;;;21.57;36.67;101464.84;5113079;27;20500;-30
2022/05/04 08:49:49;;;;;;;0.10;0.10;;;;;;;21.57;36.91;101464.84;5090518;28;20050;-32
2022/05/04 08:52:15;;;;;;;0.10;0.10;;;;;;;21.56;36.90;101464.03;5096221;28;20051;-32
2022/05/04 08:54:43;;;;;;;0.20;0.20;;;;;;;21.56;36.91;101461.25;5115202;27;20047;-33
2022/05/04 08:57:09;;;;;;;;;;;;;;;21.57;36.98;101462.91;5116188;27;20151;-32
2022/05/04 08:59:35;;;;;;;0.10;0.10;;;;;;;21.56;37.04;101463.22;5116184;27;19920;-31
2022/05/04 09:02:01;;;;;;;0.10;0.10;;;;;;;21.55;36.85;101462.38;5118771;27;20138;-32
2022/05/04 09:04:29;;;;;;;0.10;0.10;;;;;;;21.56;36.94;101461.25;5082754;27;20367;-31
2022/05/04 09:06:56;;;;;;;0.10;0.10;;;;;;;21.56;37.03;101457.66;5118284;28;20067;-32
2022/05/04 09:09:22;;;;;;;0.10;0.10;;;;;;;21.56;37.08;101463.22;5122137;28;20074;-32
2022/05/04 09:11:48;;;;;;;0.10;0.10;;;;;;;21.57;36.97;101456.53;5119842;27;20206;-32
2022/05/04 09:14:17;;;;;;;0.10;0.10;;;;;;;21.56;37.05;101457.66;5115925;28;20315;-30
2022/05/04 09:16:43;;;;;;;0.10;0.10;;;;;;;21.56;36.92;101457.66;5118948;28;20071;-33
2022/05/04 09:19:11;;;;;;;0.10;0.10;;;;;;;21.54;37.01;101452.38;5097689;28;20051;-31
2022/05/04 09:21:39;;;;;;;0.10;0.10;;;;;;;21.55;36.92;101448.53;5118444;28;20086;-30
2022/05/04 09:24:05;;;;;;;0.10;0.10;;;;;;;21.55;36.93;101448.53;5120277;27;20039;-34
2022/05/04 09:26:32;;;;;;;0.10;0.10;;;;;;;21.54;37.13;101450.47;5099045;27;20367;-30
2022/05/04 09:29:00;;;;;;;0.10;0.10;;;;;;;21.53;37.11;101446.00;5117328;28;20343;-35
2022/05/04 09:31:28;;;;;;;0.10;0.10;;;;;;;21.53;36.82;101451.56;5122769;28;20559;-34
2022/05/04 09:33:57;;;;;;;0.10;0.10;;;;;;;21.52;37.29;101444.38;5114602;27;20051;-32
2022/05/04 09:36:35;;;;;;;0.10;0.10;;;;;;;21.52;36.99;101449.09;5114376;28;20142;-32
2022/05/04 09:45:16;;;;;;;0.10;0.10;;;;;;;21.50;37.13;101456.84;5098488;28;20039;-31
2022/05/04 09:47:45;;;;;;;0.10;0.10;;;;;;;21.52;37.33;101447.13;5113147;27;20186;-30
2022/05/04 09:50:12;;;;;;;0.10;0.10;;;;;;;21.52;37.09;101455.44;5113503;28;22157;-32
2022/05/04 09:52:41;;;;;;;0.20;0.20;;;;;;;21.53;37.06;101448.78;5112634;28;20173;-32
2022/05/04 09:55:27;;;;;;;0.10;0.10;;;;;;;21.54;37.14;101444.94;5117782;28;20083;-30
2022/05/04 09:57:54;;;;;;;0.10;0.10;;;;;;;21.54;37.26;101450.47;5113470;28;20081;-33
2022/05/04 10:00:21;;;;;;;0.10;0.10;;;;;;;21.54;37.08;101455.16;5115889;27;20101;-34
2022/05/04 10:02:48;;;;;;;0.13;0.13;;;;;;;21.55;37.28;101440.22;5115724;28;20382;-30
2022/05/04 10:05:16;;;;;;;0.10;0.10;;;;;;;21.57;37.11;101454.59;5118304;28;20600;-32
2022/05/04 10:07:42;;;;;;;0.10;0.10;;;;;;;21.57;37.11;101446.28;5118075;28;20047;-30
2022/05/04 10:10:09;;;;;;;0.10;0.10;;;;;;;21.59;37.25;101451.53;5117391;28;20126;-31
2022/05/04 10:12:39;;;;;;;0.10;0.10;;;;;;;21.60;37.07;101447.66;5100287;28;20070;-31
2022/05/04 10:15:07;;;;;;;0.10;0.10;;;;;;;21.60;36.98;101447.66;5112976;28;20139;-31
2022/05/04 10:17:35;;;;;;;0.10;0.10;;;;;;;21.59;37.09;101446.84;5094809;28;20075;-33
2022/05/04 10:20:09;;;;;;;0.10;0.10;;;;;;;21.61;37.14;101446.53;5113880;28;20141;-32
2022/05/04 10:22:48;;;;;;;0.10;0.10;;;;;;;21.62;36.97;101442.66;5120513;28;20501;-31
2022/05/04 10:25:14;;;;;;;0.10;0.10;;;;;;;21.62;37.01;101435.16;5112505;28;20563;-34
2022/05/04 10:27:41;;;;;;;0.10;0.10;;;;;;;21.63;36.90;101431.31;5116046;28;20159;-33
2022/05/04 10:30:39;;;;;;;0.10;0.10;;;;;;;21.63;37.04;101434.06;5112824;28;20092;-33
2022/05/04 10:32:58;;;;;;;0.10;0.10;;;;;;;21.63;36.99;101434.06;5100532;28;20081;-31
2022/05/04 10:35:42;;;;;;;0.10;0.10;;;;;;;21.63;37.16;101436.00;5113086;27;20058;-31
2022/05/04 10:41:06;;;;;;;0.20;0.20;;;;;;;21.65;37.05;101426.28;5131075;27;20763;-30
2022/05/04 10:43:36;;;;;;;0.10;0.10;;;;;;;21.66;36.89;101433.47;5110363;27;20130;-32
2022/05/04 10:46:20;;;;;;;0.10;0.10;;;;;;;21.66;36.95;101430.72;5112323;27;20147;-30
2022/05/04 10:49:08;;;;;;;0.20;0.20;;;;;;;21.65;36.94;101428.22;5112223;28;20127;-31
2022/05/04 10:51:36;;;;;;;0.10;0.10;;;;;;;21.64;37.16;101441.25;5090523;27;20070;-31
2022/05/04 10:54:08;;;;;;;;;;;;;;;21.72;36.82;101431.53;5118079;27;20334;-37
2022/05/04 10:56:37;;;;;;;0.10;0.10;;;;;;;21.96;37.36;101431.66;5101003;27;20350;-30
2022/05/04 10:59:02;;;;;;;0.10;0.10;;;;;;;22.08;38.02;101431.28;5105302;27;20134;-28
2022/05/04 11:01:31;;;;;;;0.10;0.10;;;;;;;22.08;38.86;101429.34;5101902;27;20055;-32
2022/05/04 11:06:55;;;;;;;0.10;0.10;;;;;;;21.98;38.94;101421.94;5149471;27;20122;-32
2022/05/04 11:09:25;;;;;;;0.10;0.10;;;;;;;21.95;38.79;101416.94;5152620;27;20046;-28
2022/05/04 11:11:52;;;;;;;0.10;0.10;;;;;;;21.94;38.65;101422.81;5145880;27;20047;-30
2022/05/04 11:14:22;;;;;;;0.10;0.10;;;;;;;21.92;38.49;101423.06;5148399;27;20125;-31
2022/05/04 11:16:50;;;;;;;0.10;0.10;;;;;;;21.92;38.43;101425.00;5152287;27;20074;-30
2022/05/04 11:19:16;;;;;;;0.10;0.10;;;;;;;21.93;38.33;101421.13;5147260;27;20081;-32
2022/05/04 11:21:42;;;;;;;0.10;0.10;;;;;;;21.91;38.33;101421.41;5148832;27;20038;-29
2022/05/04 11:24:10;;;;;;;0.10;0.10;;;;;;;21.92;38.12;101413.91;5157271;27;20080;-29
2022/05/04 11:26:39;;;;;;;0.10;0.10;;;;;;;21.92;38.17;101420.28;5147795;27;20130;-32
2022/05/04 11:29:08;;;;;;;0.10;0.10;;;;;;;21.91;38.11;101413.09;5151498;27;20070;-31
2022/05/04 11:31:33;;;;;;;0.10;0.10;;;;;;;21.93;38.07;101415.56;5145532;27;20078;-32
2022/05/04 11:33:59;;;;;;;0.10;0.10;;;;;;;21.93;37.88;101410.03;5153926;27;20526;-30
2022/05/04 11:36:25;;;;;;;0.10;0.10;;;;;;;21.94;37.95;101409.75;5151722;27;20038;-31
2022/05/04 11:38:50;;;;;;;0.10;0.10;;;;;;;21.93;37.91;101410.03;5153223;27;20476;-30
2022/05/04 11:41:17;;;;;;;0.10;0.10;;;;;;;21.93;37.91;101391.44;5142080;27;20055;-32
2022/05/04 11:43:43;;;;;;;0.10;0.10;;;;;;;21.94;37.91;101400.63;5138230;27;20039;-35
2022/05/04 11:46:11;;;;;;;0.10;0.10;;;;;;;21.94;37.79;101390.34;5139208;27;20142;-32
2022/05/04 11:48:39;;;;;;;0.10;0.10;;;;;;;21.95;37.79;101393.94;5138445;27;20473;-31
2022/05/04 11:51:05;;;;;;;0.10;0.10;;;;;;;21.94;37.71;101390.34;5116126;27;20540;-31
2022/05/04 11:53:32;;;;;;;0.10;0.10;;;;;;;21.95;37.65;101388.41;5115068;27;20063;-32
2022/05/04 11:55:59;;;;;;;0.10;0.10;;;;;;;21.96;37.61;101390.88;5136775;27;20086;-32